Have a Safe July 4th! 

Flight Track Log - Related Links

Times and Time Zones

All times are in EDT time to prevent confusion due to time zone crossing. See the AAY846 flight status page for this flight to view local times or setup timezone preferences in your user account.

Time Position Orientation Groundspeed Altitude Reporting Facility
EDT Latitude Longitude Course Direction KTS MPH feet Rate Location/Type
Sun 08:37:43 AM 27.9000 -82.6833 331° Northwest 141 162 800  Level Tampa TRACON
Sun 08:38:13 AM 27.8667 -82.6833 180° South 162 186 1,900 1,933 Climbing Tampa TRACON
Sun 08:39:13 AM 27.8167 -82.7000 196° South 216 249 3,700 1,989 Climbing Tampa TRACON
Sun 08:41:08 AM 27.8953 -82.7869 316° Northwest 274 315 7,700 2,297 Climbing Jacksonville Center
Sun 08:42:08 AM 27.9808 -82.7869 360° North 274 315 10,400 1,938 Climbing Jacksonville Center
Sun 08:43:00 AM 28.4920 -83.0436 331° Northwest  Level FlightAware Approximate
Sun 08:43:18 AM 28.0953 -82.7814 North 362 417 11,900  Level Miami Center
Sun 08:44:20 AM 28.2036 -82.7833 359° North 383 441 14,100 2,345 Climbing Miami Center
Sun 08:45:08 AM 28.3022 -82.7817 North 388 447 16,200 2,111 Climbing Jacksonville Center
Sun 08:46:08 AM 28.4192 -82.8053 350° North 411 473 17,900 2,000 Climbing Jacksonville Center
Sun 08:47:08 AM 28.5381 -82.8383 346° North 425 489 20,200 2,000 Climbing Jacksonville Center
Sun 08:48:08 AM 28.6592 -82.8667 348° North 430 495 21,900 1,650 Climbing Jacksonville Center
Sun 08:49:08 AM 28.7906 -82.9044 346° North 430 495 23,500 1,600 Climbing Jacksonville Center
Sun 08:50:08 AM 28.9158 -82.9400 346° North 435 501 25,100 1,700 Climbing Jacksonville Center
Sun 08:51:08 AM 29.0411 -82.9733 347° North 450 518 26,900 1,650 Climbing Jacksonville Center
Sun 08:52:08 AM 29.1558 -83.0258 338° Northwest 450 518 28,400 1,450 Climbing Jacksonville Center
Sun 08:53:08 AM 29.2664 -83.0972 331° Northwest 450 518 29,800 1,400 Climbing Jacksonville Center
Sun 08:54:08 AM 29.3747 -83.1667 331° Northwest 445 512 31,200 1,100 Climbing Jacksonville Center
Sun 08:55:08 AM 29.4789 -83.2361 330° Northwest 445 512 32,000 400 Climbing Jacksonville Center
Sun 08:56:08 AM 29.5872 -83.3058 331° Northwest 450 518 32,000  Level Jacksonville Center
Sun 08:57:08 AM 29.6956 -83.3756 331° Northwest 444 511 32,000  Level Jacksonville Center
Sun 08:58:08 AM 29.8019 -83.4431 331° Northwest 439 505 32,000  Level Jacksonville Center
Sun 08:59:08 AM 29.9081 -83.5108 331° Northwest 439 505 32,000  Level Jacksonville Center
Sun 09:00:08 AM 30.0119 -83.5786 331° Northwest 439 505 32,000  Level Jacksonville Center
Sun 09:01:08 AM 30.1161 -83.6467 331° Northwest 439 505 32,000  Level Jacksonville Center
Sun 09:02:08 AM 30.2222 -83.7122 332° Northwest 439 505 32,000  Level Jacksonville Center
Sun 09:03:08 AM 30.3281 -83.7831 330° Northwest 439 505 32,000  Level Jacksonville Center
Sun 09:04:08 AM 30.4342 -83.8514 331° Northwest 439 505 32,000  Level Jacksonville Center
Sun 09:05:08 AM 30.5422 -83.9225 330° Northwest 439 505 32,000  Level Jacksonville Center
Sun 09:06:08 AM 30.6314 -83.9839 329° Northwest 439 505 32,000  Level Jacksonville Center
Sun 09:07:08 AM 30.7394 -84.0528 331° Northwest 439 505 32,000  Level Jacksonville Center
Sun 09:08:08 AM 30.8453 -84.1242 330° Northwest 439 505 32,000  Level Jacksonville Center
Sun 09:09:08 AM 30.9511 -84.1933 331° Northwest 439 505 32,000  Level Jacksonville Center
Sun 09:10:08 AM 31.0672 -84.2703 330° Northwest 439 505 32,000  Level Jacksonville Center
Sun 09:11:08 AM 31.1708 -84.3397 330° Northwest 439 505 32,000 223 Level Jacksonville Center
Sun 09:13:16 AM 31.3828 -84.4817 330° Northwest 438 504 32,700 479 Climbing Atlanta Center
Sun 09:14:16 AM 31.4867 -84.5503 331° Northwest 438 504 33,500 650 Climbing Atlanta Center
Sun 09:15:16 AM 31.5886 -84.6214 329° Northwest 438 504 34,000 250 Climbing Atlanta Center
Sun 09:16:16 AM 31.6906 -84.6906 330° Northwest 427 491 34,000  Level Atlanta Center
Sun 09:17:16 AM 31.7947 -84.7597 331° Northwest 427 491 34,000  Level Atlanta Center
Sun 09:18:16 AM 31.9050 -84.8192 335° Northwest 427 491 34,000  Level Atlanta Center
Sun 09:19:16 AM 32.0214 -84.8619 343° North 427 491 34,000  Level Atlanta Center
Sun 09:20:16 AM 32.1403 -84.8972 346° North 432 497 34,000  Level Atlanta Center
Sun 09:21:16 AM 32.2525 -84.9378 343° North 432 497 34,000  Level Atlanta Center
Sun 09:22:16 AM 32.3714 -84.9733 346° North 432 497 34,000  Level Atlanta Center
Sun 09:23:16 AM 32.4900 -85.0117 345° North 432 497 34,000  Level Atlanta Center
Sun 09:24:16 AM 32.6003 -85.0497 344° North 432 497 34,000  Level Atlanta Center
Sun 09:25:16 AM 32.7169 -85.0906 344° North 432 497 34,000  Level Atlanta Center
Sun 09:26:16 AM 32.8375 -85.1317 344° North 439 505 34,000  Level Atlanta Center
Sun 09:27:16 AM 32.9519 -85.1700 344° North 439 505 34,000  Level Atlanta Center
Sun 09:28:16 AM 33.0686 -85.2164 342° North 434 499 34,000  Level Atlanta Center
Sun 09:29:16 AM 33.1828 -85.2675 339° North 434 499 34,000  Level Atlanta Center
Sun 09:30:16 AM 33.2931 -85.3136 341° North 434 499 34,000  Level Atlanta Center
Sun 09:31:16 AM 33.4050 -85.3700 337° Northwest 434 499 34,000  Level Atlanta Center
Sun 09:32:16 AM 33.5297 -85.4294 338° Northwest 436 502 34,000  Level Atlanta Center
Sun 09:33:16 AM 33.6417 -85.4836 338° Northwest 431 496 34,000  Level Atlanta Center
Sun 09:34:16 AM 33.7519 -85.5303 341° North 431 496 34,000  Level Atlanta Center
Sun 09:35:16 AM 33.8617 -85.5872 337° Northwest 431 496 34,000  Level Atlanta Center
Sun 09:36:16 AM 33.9758 -85.6419 338° Northwest 431 496 34,000  Level Atlanta Center
Sun 09:37:16 AM 34.0858 -85.6892 340° North 431 496 34,000  Level Atlanta Center
Sun 09:38:16 AM 34.1856 -85.7339 340° North 426 490 34,000  Level Atlanta Center
Sun 09:39:16 AM 34.2953 -85.7864 338° Northwest 426 490 34,000  Level Atlanta Center
Sun 09:40:16 AM 34.4053 -85.8389 339° North 426 490 34,000  Level Atlanta Center
Sun 09:41:16 AM 34.5192 -85.8942 338° Northwest 432 497 34,000  Level Atlanta Center
Sun 09:42:16 AM 34.6311 -85.9447 340° North 432 497 34,000  Level Atlanta Center
Sun 09:43:16 AM 34.7386 -85.9978 338° Northwest 432 497 34,000  Level Atlanta Center
Sun 09:44:16 AM 34.8486 -86.0508 338° Northwest 432 497 34,000  Level Atlanta Center
Sun 09:45:16 AM 34.9664 -86.1119 337° Northwest 432 497 34,000  Level Atlanta Center
Sun 09:46:16 AM 35.0556 -86.1522 340° North 427 491 34,000  Level Atlanta Center
Sun 09:47:45 AM 35.2428 -86.2433 338° Northwest 425 489 34,000  Level Memphis Center
Sun 09:48:47 AM 35.3539 -86.2967 339° North 425 489 34,000  Level Memphis Center
Sun 09:49:48 AM 35.4628 -86.3519 338° Northwest 425 489 34,000  Level Memphis Center
Sun 09:50:50 AM 35.5733 -86.4064 338° Northwest 424 488 34,000  Level Memphis Center
Sun 09:51:51 AM 35.6828 -86.4614 338° Northwest 424 488 34,000  Level Memphis Center
Sun 09:52:53 AM 35.7919 -86.5144 338° Northwest 421 484 34,000  Level Memphis Center
Sun 09:53:54 AM 35.8978 -86.5761 335° Northwest 420 483 34,000  Level Memphis Center
Sun 09:54:56 AM 36.0025 -86.6406 334° Northwest 417 480 34,000  Level Memphis Center
Sun 09:55:57 AM 36.1075 -86.7036 334° Northwest 417 480 34,000  Level Memphis Center
Sun 09:56:59 AM 36.2117 -86.7664 334° Northwest 416 479 34,000  Level Memphis Center
Sun 09:58:00 AM 36.3200 -86.8336 333° Northwest 416 479 34,000  Level Memphis Center
Sun 09:59:01 AM 36.4342 -86.9008 335° Northwest 417 480 34,000  Level Memphis Center
Sun 10:00:03 AM 36.5364 -86.9650 333° Northwest 415 478 34,000  Level Memphis Center
Sun 10:01:05 AM 36.6383 -87.0283 334° Northwest 409 471 34,000  Level Memphis Center
Sun 10:02:06 AM 36.7397 -87.0919 333° Northwest 407 468 34,000  Level Memphis Center
Sun 10:03:08 AM 36.8428 -87.1567 333° Northwest 407 468 34,000  Level Memphis Center
Sun 10:04:09 AM 36.9458 -87.2217 333° Northwest 411 473 34,000  Level Memphis Center
Sun 10:05:11 AM 37.0483 -87.2861 333° Northwest 409 471 34,000  Level Memphis Center
Sun 10:06:12 AM 37.1697 -87.3528 336° Northwest 408 470 34,000  Level Memphis Center
Sun 10:07:14 AM 37.2808 -87.3956 343° North 410 472 34,000  Level Memphis Center
Sun 10:08:15 AM 37.3903 -87.4411 342° North 409 471 34,000  Level Memphis Center
Sun 10:09:17 AM 37.5000 -87.4867 342° North 410 472 34,000  Level Memphis Center
Sun 10:10:19 AM 37.6103 -87.5311 342° North 410 472 34,000  Level Memphis Center
Sun 10:11:20 AM 37.7197 -87.5769 342° North 410 472 34,000  Level Memphis Center
Sun 10:12:22 AM 37.8286 -87.6228 342° North 410 472 34,000  Level Memphis Center
Sun 10:13:23 AM 37.9392 -87.6675 342° North 410 472 34,000  Level Memphis Center
Sun 10:14:46 AM 38.0861 -87.7256 343° North 412 474 34,000  Level Indianapolis Center
Sun 10:15:48 AM 38.1917 -87.7861 336° Northwest 412 474 34,000  Level Indianapolis Center
Sun 10:16:49 AM 38.2894 -87.8589 330° Northwest 407 468 34,000  Level Indianapolis Center
Sun 10:17:51 AM 38.4081 -87.9461 330° Northwest 407 468 34,000  Level Indianapolis Center
Sun 10:18:53 AM 38.5053 -88.0197 329° Northwest 406 467 34,000  Level Indianapolis Center
Sun 10:19:54 AM 38.6039 -88.0925 330° Northwest 406 467 34,000  Level Indianapolis Center
Sun 10:20:56 AM 38.7008 -88.1650 330° Northwest 406 467 34,000  Level Indianapolis Center
Sun 10:21:58 AM 38.7983 -88.2389 329° Northwest 406 467 34,000  Level Indianapolis Center
Sun 10:22:59 AM 38.8947 -88.3100 330° Northwest 401 461 34,000 -341 Level Indianapolis Center
Sun 10:24:01 AM 38.9911 -88.3850 329° Northwest 400 460 33,300 -1,210 Descending Indianapolis Center
Sun 10:25:03 AM 39.0883 -88.4603 329° Northwest 403 464 31,500 -1,805 Descending Indianapolis Center
Sun 10:26:04 AM 39.1908 -88.5367 330° Northwest 414 476 29,600 -1,951 Descending Indianapolis Center
Sun 10:27:06 AM 39.2944 -88.6150 330° Northwest 424 488 27,500 -2,177 Descending Indianapolis Center
Sun 10:28:08 AM 39.4197 -88.7111 329° Northwest 431 496 25,100 -1,707 Descending Indianapolis Center
Sun 10:29:09 AM 39.5206 -88.7900 329° Northwest 427 491 24,000 -537 Descending Indianapolis Center
Sun 10:30:11 AM 39.6061 -88.8556 329° Northwest 417 480 24,000 -367 Level Indianapolis Center
Sun 10:31:36 AM 39.7461 -88.9653 329° Northwest 414 476 23,100 -1,233 Descending Kansas City Center
Sun 10:32:37 AM 39.8425 -89.0414 329° Northwest 411 473 21,000 -2,066 Descending Kansas City Center
Sun 10:33:38 AM 39.9364 -89.1158 329° Northwest 400 460 18,900 -2,244 Descending Kansas City Center
Sun 10:34:40 AM 40.0469 -89.2000 330° Northwest 391 450 16,400 -2,226 Descending Kansas City Center
Sun 10:35:42 AM 40.1361 -89.2703 329° Northwest 380 437 14,300 -1,949 Descending Kansas City Center
Sun 10:36:37 AM 40.2086 -89.3128 336° Northwest 365 420 12,600 -1,552 Descending Chicago Center
Sun 10:37:38 AM 40.3000 -89.3606 338° Northwest 357 411 11,300 -1,463 Descending Chicago Center
Sun 10:38:40 AM 40.3956 -89.4119 338° Northwest 318 366 9,600 -2,146 Descending Chicago Center
Sun 10:39:41 AM 40.4706 -89.4539 337° Northwest 298 343 6,900 -2,488 Descending Chicago Center
Sun 10:40:43 AM 40.5428 -89.4903 339° North 286 329 4,500 -2,195 Descending Chicago Center
Sun 10:41:44 AM 40.6144 -89.5236 341° North 280 322 2,400 -1,024 Descending Chicago Center
Sun 10:42:46 AM 40.6736 -89.5508 341° North 244 281 2,400 -49 Level Chicago Center
Sun 10:43:47 AM 40.7117 -89.5903 322° Northwest 198 228 2,300 -390 Descending Chicago Center
Sun 10:44:49 AM 40.7092 -89.6372 266° West 155 178 1,600 -732 Descending Chicago Center
Sun 10:45:50 AM 40.6744 -89.6722 217° Southwest 140 161 800 -787 Descending Chicago Center

Login

Don't have an account? Register now (free) for customized features, flight alerts, and more!